Time;durP1;ratioP1;P1;durP2;ratioP2;P2;SDS_P1;SDS_P2;PMS_P1;PMS_P2;Temp;Humidity;BMP_temperature;BMP_pressure;BME280_temperature;BME280_humidity;BME280_pressure;Samples;Min_cycle;Max_cycle;Signal;HPM_P1;HPM_P2
2021/06/21 00:00:25;;;;;;;10.52;3.53;;;17.30;99.90;;;;;;5072109;28;20045;-74
2021/06/21 00:02:52;;;;;;;15.40;3.92;;;17.10;99.90;;;;;;5072363;28;20041;-74
2021/06/21 00:05:19;;;;;;;13.32;4.18;;;17.10;99.90;;;;;;5072304;28;20029;-73
2021/06/21 00:07:46;;;;;;;11.25;3.95;;;17.10;99.90;;;;;;5072311;28;20029;-73
2021/06/21 00:10:15;;;;;;;14.27;3.83;;;17.00;99.90;;;;;;5072411;28;20467;-73
2021/06/21 00:12:44;;;;;;;11.18;3.85;;;17.00;99.90;;;;;;5072680;28;20036;-75
2021/06/21 00:15:14;;;;;;;16.85;3.95;;;16.90;99.90;;;;;;5071688;28;20401;-74
2021/06/21 00:17:40;;;;;;;11.68;3.85;;;17.20;99.90;;;;;;5071912;28;20044;-74
2021/06/21 00:20:07;;;;;;;13.88;4.68;;;16.90;99.90;;;;;;5072128;28;20036;-73
2021/06/21 00:22:33;;;;;;;12.80;4.20;;;17.20;99.90;;;;;;5071975;28;20033;-74
2021/06/21 00:25:00;;;;;;;17.98;4.72;;;17.20;99.90;;;;;;5071685;28;20028;-74
2021/06/21 00:27:26;;;;;;;17.10;5.63;;;17.30;99.90;;;;;;5072233;28;20036;-73
2021/06/21 00:29:53;;;;;;;15.40;5.15;;;17.30;99.90;;;;;;5071357;28;20044;-74
2021/06/21 00:32:19;;;;;;;14.75;4.97;;;17.00;99.90;;;;;;5075319;28;20036;-73
2021/06/21 00:34:45;;;;;;;18.98;5.53;;;17.10;99.90;;;;;;5075769;28;20028;-73
2021/06/21 00:37:11;;;;;;;15.10;4.85;;;16.90;99.90;;;;;;5073411;28;20473;-73
2021/06/21 00:39:37;;;;;;;15.60;5.03;;;17.10;99.90;;;;;;5075328;28;20029;-73
2021/06/21 00:42:04;;;;;;;19.58;5.47;;;17.00;99.90;;;;;;5075095;28;20032;-73
2021/06/21 00:44:30;;;;;;;19.15;5.28;;;16.80;99.90;;;;;;5079149;28;20377;-73
2021/06/21 00:46:56;;;;;;;18.67;5.55;;;17.10;99.90;;;;;;5074747;28;20024;-73
2021/06/21 00:49:23;;;;;;;21.88;6.60;;;16.90;99.90;;;;;;5075017;28;20035;-73
2021/06/21 00:51:52;;;;;;;23.35;6.97;;;17.00;99.90;;;;;;5074626;28;20036;-73
2021/06/21 00:54:19;;;;;;;21.70;7.18;;;17.10;99.90;;;;;;5075415;28;20032;-73
2021/06/21 00:56:46;;;;;;;19.75;7.60;;;17.20;99.90;;;;;;5074819;28;20034;-74
2021/06/21 00:59:13;;;;;;;19.75;7.75;;;17.20;99.90;;;;;;5074530;28;20382;-74
2021/06/21 01:01:39;;;;;;;21.75;8.00;;;17.20;99.90;;;;;;5074665;28;20040;-74
2021/06/21 01:04:05;;;;;;;25.42;9.32;;;17.10;99.90;;;;;;5083673;28;20058;-74
2021/06/21 01:06:31;;;;;;;21.58;7.85;;;17.20;99.90;;;;;;5082843;28;20424;-74
2021/06/21 01:08:59;;;;;;;27.35;9.13;;;16.90;99.90;;;;;;5074431;28;20032;-74
2021/06/21 01:11:53;;;;;;;23.17;7.88;;;16.90;99.90;;;;;;5074043;28;20049;-75
2021/06/21 01:14:30;;;;;;;18.42;7.72;;;16.80;99.90;;;;;;5074336;28;20041;-75
2021/06/21 01:17:21;;;;;;;26.25;8.18;;;17.00;99.90;;;;;;5074203;28;20020;-74
2021/06/21 01:19:50;;;;;;;24.55;8.82;;;16.90;99.90;;;;;;5074254;28;20041;-75
2021/06/21 01:22:47;;;;;;;23.13;6.85;;;17.00;99.90;;;;;;5074295;28;20483;-75
2021/06/21 01:25:35;;;;;;;18.25;6.22;;;16.90;99.90;;;;;;5073610;28;20037;-75
2021/06/21 01:28:13;;;;;;;18.02;5.68;;;16.90;99.90;;;;;;5073607;28;20039;-74
2021/06/21 01:30:52;;;;;;;17.95;5.72;;;16.70;99.90;;;;;;5073415;28;20041;-74
2021/06/21 01:33:21;;;;;;;20.20;6.35;;;16.90;99.90;;;;;;5074344;28;20052;-74
2021/06/21 01:35:56;;;;;;;16.15;5.60;;;16.90;99.90;;;;;;5074684;28;20405;-74
2021/06/21 01:38:27;;;;;;;21.95;6.00;;;16.90;99.90;;;;;;5073052;28;20040;-73
2021/06/21 01:40:56;;;;;;;20.52;5.85;;;16.70;99.90;;;;;;5073827;28;20489;-74
2021/06/21 01:43:39;;;;;;;20.35;6.68;;;16.80;99.90;;;;;;5073966;28;20033;-73
2021/06/21 01:46:08;;;;;;;16.85;5.57;;;16.70;99.90;;;;;;5073854;28;20025;-74
2021/06/21 01:48:51;;;;;;;18.00;5.90;;;16.70;99.90;;;;;;5074013;28;20033;-74
2021/06/21 01:51:18;;;;;;;19.05;5.93;;;16.70;99.90;;;;;;5079415;28;20120;-75
2021/06/21 01:53:47;;;;;;;16.38;6.00;;;16.60;99.90;;;;;;5073817;28;20377;-74
2021/06/21 01:56:21;;;;;;;17.27;5.55;;;16.70;99.90;;;;;;5072489;28;20390;-73
2021/06/21 01:58:50;;;;;;;19.88;6.05;;;16.60;99.90;;;;;;5074118;28;20044;-74
2021/06/21 02:01:17;;;;;;;17.35;5.78;;;16.70;99.90;;;;;;5073472;28;20055;-75
2021/06/21 02:03:49;;;;;;;19.70;5.15;;;16.60;99.90;;;;;;5073465;28;20043;-74
2021/06/21 02:06:16;;;;;;;15.70;5.40;;;16.50;99.90;;;;;;5073907;28;20025;-74
2021/06/21 02:08:45;;;;;;;13.82;5.70;;;16.60;99.90;;;;;;5079221;28;20043;-76
2021/06/21 02:11:12;;;;;;;15.55;5.55;;;16.70;99.90;;;;;;5092042;28;20024;-74
2021/06/21 02:13:39;;;;;;;19.33;4.78;;;16.80;99.90;;;;;;5084056;28;20036;-75
2021/06/21 02:16:07;;;;;;;15.95;5.97;;;16.50;99.90;;;;;;5079256;28;20036;-74
2021/06/21 02:18:34;;;;;;;18.13;5.15;;;16.70;99.90;;;;;;5075003;28;20036;-76
2021/06/21 02:21:02;;;;;;;11.80;4.38;;;16.70;99.90;;;;;;5090772;28;20491;-76
2021/06/21 02:23:28;;;;;;;13.48;4.82;;;16.40;99.90;;;;;;5073493;28;20393;-75
2021/06/21 02:25:59;;;;;;;19.23;5.10;;;16.60;99.90;;;;;;5072922;28;20025;-73
2021/06/21 02:28:27;;;;;;;14.00;5.20;;;16.50;99.90;;;;;;5073092;28;20037;-74
2021/06/21 02:30:57;;;;;;;15.77;4.35;;;16.60;99.90;;;;;;5072649;28;20032;-75
2021/06/21 02:33:23;;;;;;;15.93;5.15;;;16.50;99.90;;;;;;5073626;28;20035;-75
2021/06/21 02:35:49;;;;;;;14.05;4.88;;;16.50;99.90;;;;;;5072850;28;20409;-76
2021/06/21 02:38:16;;;;;;;11.35;4.45;;;16.40;99.90;;;;;;5072160;28;20480;-75
2021/06/21 02:40:44;;;;;;;18.23;4.93;;;16.50;99.90;;;;;;5073041;28;20051;-76
2021/06/21 02:43:11;;;;;;;15.88;5.65;;;16.30;99.90;;;;;;5072568;28;20385;-76
2021/06/21 02:45:37;;;;;;;14.43;5.55;;;16.30;99.90;;;;;;5072917;28;20028;-76
2021/06/21 02:48:06;;;;;;;17.73;6.07;;;16.20;99.90;;;;;;5072559;28;20020;-75
2021/06/21 02:50:35;;;;;;;20.27;5.70;;;16.50;99.90;;;;;;5072965;28;20032;-75
2021/06/21 02:53:20;;;;;;;17.73;5.25;;;16.50;99.90;;;;;;5071992;28;20028;-75
2021/06/21 02:56:07;;;;;;;18.17;6.10;;;16.40;99.90;;;;;;5072238;28;20039;-75
2021/06/21 02:58:37;;;;;;;20.92;6.10;;;16.50;99.90;;;;;;5072079;28;20049;-75
2021/06/21 03:01:06;;;;;;;15.80;6.35;;;16.60;99.90;;;;;;5071908;28;20033;-75
2021/06/21 03:03:39;;;;;;;23.50;6.07;;;16.50;99.90;;;;;;5072800;28;20043;-75
2021/06/21 03:06:07;;;;;;;16.23;5.15;;;16.50;99.90;;;;;;5071472;28;20039;-75
2021/06/21 03:08:36;;;;;;;14.50;5.63;;;16.40;99.90;;;;;;5072747;28;20036;-75
2021/06/21 03:11:03;;;;;;;16.65;6.28;;;16.20;99.90;;;;;;5072389;28;20035;-74
2021/06/21 03:13:30;;;;;;;16.83;5.63;;;16.20;99.90;;;;;;5054001;28;20504;-74
2021/06/21 03:15:58;;;;;;;18.05;6.43;;;16.60;99.90;;;;;;5071578;28;20478;-74
2021/06/21 03:18:25;;;;;;;15.75;5.97;;;16.50;99.90;;;;;;5071966;28;20028;-75
2021/06/21 03:20:57;;;;;;;25.92;6.28;;;16.50;99.90;;;;;;5084641;28;20480;-74
2021/06/21 03:23:25;;;;;;;15.35;6.57;;;16.10;99.90;;;;;;5071966;28;20032;-74
2021/06/21 03:25:54;;;;;;;16.70;5.80;;;16.50;99.90;;;;;;5072205;28;20040;-74
2021/06/21 03:28:22;;;;;;;12.57;5.20;;;16.10;99.90;;;;;;5079243;28;20041;-74
2021/06/21 03:30:56;;;;;;;17.83;5.15;;;16.10;99.90;;;;;;5073036;28;20029;-74
2021/06/21 03:33:22;;;;;;;17.27;5.50;;;16.60;99.90;;;;;;5072917;28;20466;-74
2021/06/21 03:35:49;;;;;;;19.42;5.53;;;16.10;99.90;;;;;;5071209;28;20029;-74
2021/06/21 03:38:21;;;;;;;16.45;6.00;;;16.60;99.90;;;;;;5072032;28;20041;-75
2021/06/21 03:40:49;;;;;;;18.35;6.60;;;16.00;99.90;;;;;;5071725;28;20040;-75
2021/06/21 03:43:23;;;;;;;15.90;6.72;;;16.30;99.90;;;;;;5072011;28;20045;-75
2021/06/21 03:45:52;;;;;;;22.55;7.07;;;16.20;99.90;;;;;;5072484;28;20099;-75
2021/06/21 03:48:19;;;;;;;21.98;7.05;;;16.30;99.90;;;;;;5071991;28;20470;-75
2021/06/21 03:50:45;;;;;;;19.77;6.93;;;16.20;99.90;;;;;;5080203;28;20391;-74
2021/06/21 03:53:13;;;;;;;16.27;6.85;;;16.50;99.90;;;;;;5071711;28;20457;-74
2021/06/21 03:55:40;;;;;;;17.20;7.25;;;16.10;99.90;;;;;;5071655;28;20052;-75
2021/06/21 03:58:06;;;;;;;16.17;6.97;;;16.20;99.90;;;;;;5081506;28;20481;-75
2021/06/21 04:00:35;;;;;;;21.08;7.43;;;16.50;99.90;;;;;;5072167;28;20401;-76
2021/06/21 04:03:03;;;;;;;16.75;6.22;;;16.20;99.90;;;;;;5071336;28;20454;-75
2021/06/21 04:05:29;;;;;;;18.63;6.10;;;16.70;99.90;;;;;;5073068;28;20025;-75
2021/06/21 04:07:56;;;;;;;19.33;6.97;;;16.40;99.90;;;;;;5075642;28;20024;-75
2021/06/21 04:10:25;;;;;;;18.30;7.35;;;16.80;99.90;;;;;;5075993;28;20036;-74
2021/06/21 04:12:52;;;;;;;13.52;6.55;;;16.90;99.90;;;;;;5075675;28;20040;-75
2021/06/21 04:15:22;;;;;;;15.32;6.55;;;17.00;99.90;;;;;;5075068;28;20044;-74
2021/06/21 04:17:48;;;;;;;16.95;6.35;;;16.80;99.90;;;;;;5075993;28;20032;-75
2021/06/21 04:20:17;;;;;;;11.23;5.10;;;16.80;99.90;;;;;;5075534;28;20048;-75
2021/06/21 04:22:43;;;;;;;12.98;6.35;;;17.60;99.90;;;;;;5075625;28;20055;-75
2021/06/21 04:25:12;;;;;;;12.85;5.18;;;16.90;99.90;;;;;;5074024;28;20048;-75
2021/06/21 04:27:39;;;;;;;15.25;5.18;;;17.40;99.90;;;;;;5075920;28;20032;-76
2021/06/21 04:30:12;;;;;;;11.50;4.72;;;18.30;99.90;;;;;;5074917;28;20035;-76
2021/06/21 04:32:39;;;;;;;11.82;4.45;;;19.20;99.90;;;;;;5075502;28;20029;-76
2021/06/21 04:35:09;;;;;;;19.17;4.07;;;19.60;99.90;;;;;;5075712;28;20478;-76
2021/06/21 04:37:36;;;;;;;8.35;3.95;;;19.90;99.90;;;;;;5084975;28;20401;-75
2021/06/21 04:40:05;;;;;;;10.35;4.22;;;20.30;99.90;;;;;;5074806;28;20028;-75
2021/06/21 04:42:31;;;;;;;9.73;2.63;;;20.00;99.90;;;;;;5086919;28;20480;-75
2021/06/21 04:44:57;;;;;;;9.80;3.60;;;20.40;99.90;;;;;;5080277;28;20028;-75
2021/06/21 04:47:24;;;;;;;7.70;3.42;;;20.70;99.90;;;;;;5074266;28;20047;-74
2021/06/21 04:49:56;;;;;;;7.28;3.70;;;20.90;99.90;;;;;;5075054;28;20044;-74
2021/06/21 04:52:28;;;;;;;6.15;2.90;;;21.30;99.90;;;;;;5074781;28;20036;-72
2021/06/21 04:55:01;;;;;;;10.23;3.45;;;21.20;99.90;;;;;;5075121;28;20040;-73
2021/06/21 04:57:30;;;;;;;9.32;3.03;;;21.30;99.90;;;;;;5088788;28;20045;-73
2021/06/21 04:59:57;;;;;;;7.40;3.42;;;21.40;99.90;;;;;;5074919;28;20114;-74
2021/06/21 05:02:23;;;;;;;9.65;3.72;;;21.80;99.90;;;;;;5077177;28;20048;-73
2021/06/21 05:04:50;;;;;;;7.20;2.45;;;21.80;99.90;;;;;;5086188;28;20036;-73
2021/06/21 05:07:17;;;;;;;9.32;3.13;;;22.20;99.90;;;;;;5077887;28;20024;-73
2021/06/21 05:09:43;;;;;;;9.40;2.42;;;22.00;99.90;;;;;;5074767;28;20033;-72
2021/06/21 05:12:10;;;;;;;9.82;2.85;;;22.60;99.90;;;;;;5088260;28;20036;-73
2021/06/21 05:14:37;;;;;;;7.75;2.35;;;23.40;99.90;;;;;;5085464;28;20028;-73
2021/06/21 05:17:07;;;;;;;7.78;2.45;;;24.10;99.90;;;;;;5091463;28;20043;-73
2021/06/21 05:19:34;;;;;;;7.10;2.00;;;24.80;99.90;;;;;;5081046;28;20377;-73
2021/06/21 05:22:01;;;;;;;8.18;2.05;;;25.30;98.90;;;;;;5074286;28;20035;-73
2021/06/21 05:24:28;;;;;;;7.03;2.45;;;25.20;96.50;;;;;;5074209;28;20048;-75
2021/06/21 05:26:54;;;;;;;9.20;2.70;;;24.80;96.00;;;;;;5073620;28;20047;-76
2021/06/21 05:29:20;;;;;;;10.35;2.45;;;24.40;95.80;;;;;;5073805;28;20037;-72
2021/06/21 05:31:47;;;;;;;5.57;2.20;;;24.00;96.00;;;;;;5073645;28;20037;-72
2021/06/21 05:34:13;;;;;;;7.78;2.70;;;24.20;96.50;;;;;;5084661;28;20047;-72
2021/06/21 05:36:39;;;;;;;8.68;2.38;;;24.30;95.50;;;;;;5083639;28;20052;-72
2021/06/21 05:39:06;;;;;;;7.05;1.77;;;24.90;94.80;;;;;;5072559;28;20036;-72
2021/06/21 05:41:32;;;;;;;6.80;2.67;;;25.60;93.00;;;;;;5074956;28;20386;-73
2021/06/21 05:43:58;;;;;;;7.55;2.58;;;25.60;92.10;;;;;;5074396;28;20498;-74
2021/06/21 05:46:25;;;;;;;7.05;1.50;;;25.20;92.50;;;;;;5086969;28;20039;-73
2021/06/21 05:48:51;;;;;;;4.15;1.45;;;25.70;91.70;;;;;;5086879;28;20047;-72
2021/06/21 05:51:17;;;;;;;9.13;2.33;;;25.80;89.90;;;;;;5074025;28;20045;-72
2021/06/21 05:53:43;;;;;;;5.90;1.50;;;26.30;87.20;;;;;;5085881;28;20039;-72
2021/06/21 05:56:10;;;;;;;5.97;2.08;;;26.00;88.70;;;;;;5074855;28;20036;-72
2021/06/21 05:58:36;;;;;;;7.07;1.77;;;26.70;87.30;;;;;;5088158;28;20052;-73
2021/06/21 06:01:03;;;;;;;3.42;1.40;;;26.70;89.00;;;;;;5085407;28;20040;-73
2021/06/21 06:03:32;;;;;;;3.95;1.50;;;27.20;80.50;;;;;;5086701;28;20044;-75
2021/06/21 06:06:00;;;;;;;5.03;1.73;;;26.50;80.40;;;;;;5073663;28;20032;-76
2021/06/21 06:08:27;;;;;;;5.45;1.75;;;26.00;84.00;;;;;;5082577;28;20028;-75
2021/06/21 06:10:53;;;;;;;5.78;1.58;;;25.70;82.90;;;;;;5073575;28;20146;-75
2021/06/21 06:13:20;;;;;;;6.10;1.60;;;25.80;83.30;;;;;;5078024;28;20041;-76
2021/06/21 06:15:46;;;;;;;7.35;2.17;;;25.40;85.30;;;;;;5073483;28;20462;-73
2021/06/21 06:18:12;;;;;;;4.25;2.20;;;26.30;85.30;;;;;;5074977;28;20032;-73
2021/06/21 06:20:38;;;;;;;8.02;1.58;;;26.30;81.80;;;;;;5084743;28;20493;-73
2021/06/21 06:23:05;;;;;;;4.15;1.48;;;25.50;83.30;;;;;;5076260;28;20040;-74
2021/06/21 06:25:37;;;;;;;5.10;1.42;;;26.00;80.70;;;;;;5092289;28;20035;-74
2021/06/21 06:28:04;;;;;;;5.88;1.90;;;26.20;81.40;;;;;;5076812;28;20033;-73
2021/06/21 06:30:31;;;;;;;4.65;1.40;;;27.00;78.70;;;;;;5086576;28;20031;-73
2021/06/21 06:32:57;;;;;;;5.18;1.23;;;27.30;77.90;;;;;;5088986;28;20044;-72
2021/06/21 06:35:24;;;;;;;10.50;1.73;;;27.30;76.50;;;;;;5079813;28;20028;-73
2021/06/21 06:37:50;;;;;;;5.03;1.35;;;27.40;76.70;;;;;;5083529;28;20393;-74
2021/06/21 06:40:17;;;;;;;7.68;1.70;;;25.90;76.40;;;;;;5077972;28;20031;-74
2021/06/21 06:42:45;;;;;;;4.68;1.42;;;24.80;79.70;;;;;;5090135;28;20035;-74
2021/06/21 06:45:12;;;;;;;4.53;1.13;;;25.90;77.50;;;;;;5084978;28;20025;-74
2021/06/21 06:47:39;;;;;;;6.35;1.30;;;26.60;76.60;;;;;;5090354;28;20392;-74
2021/06/21 06:50:06;;;;;;;4.90;1.55;;;26.30;75.90;;;;;;5072993;28;20025;-74
2021/06/21 06:52:33;;;;;;;3.63;1.20;;;26.70;73.20;;;;;;5073088;28;20033;-74
2021/06/21 06:57:44;;;;;;;5.57;1.70;;;26.00;75.50;;;;;;5075380;28;20063;-76
2021/06/21 07:00:13;;;;;;;6.05;2.38;;;25.70;76.60;;;;;;5073768;28;20033;-75
2021/06/21 07:02:44;;;;;;;5.15;1.80;;;25.10;78.10;;;;;;5082411;28;20047;-76
2021/06/21 07:05:11;;;;;;;4.70;1.30;;;24.10;81.40;;;;;;5071158;28;20382;-75
2021/06/21 07:07:37;;;;;;;6.13;1.20;;;23.90;81.60;;;;;;5072434;28;20057;-75
2021/06/21 07:10:05;;;;;;;4.65;1.20;;;24.60;81.10;;;;;;5072380;28;20044;-74
2021/06/21 07:12:31;;;;;;;4.30;1.25;;;24.30;80.50;;;;;;5073102;28;20035;-73
2021/06/21 07:14:58;;;;;;;3.80;1.38;;;23.40;81.80;;;;;;5072534;28;20036;-73
2021/06/21 07:17:24;;;;;;;5.65;1.88;;;22.90;85.20;;;;;;5071874;28;20028;-73
2021/06/21 07:19:50;;;;;;;5.70;1.50;;;23.80;83.30;;;;;;5071628;28;20040;-73
2021/06/21 07:22:16;;;;;;;5.10;1.40;;;23.90;83.00;;;;;;5072045;28;20037;-73
2021/06/21 07:24:43;;;;;;;4.95;1.60;;;23.80;83.30;;;;;;5077569;28;20044;-72
2021/06/21 07:27:10;;;;;;;6.78;1.60;;;24.80;84.80;;;;;;5074658;28;20054;-73
2021/06/21 07:29:36;;;;;;;4.47;1.27;;;25.40;78.20;;;;;;5072099;28;20025;-73
2021/06/21 07:32:03;;;;;;;3.70;1.23;;;24.60;79.80;;;;;;5086077;28;20028;-73
2021/06/21 07:34:29;;;;;;;8.30;1.80;;;23.50;84.30;;;;;;5071489;28;20482;-73
2021/06/21 07:36:55;;;;;;;7.30;1.60;;;23.70;84.50;;;;;;5071570;28;20044;-73
2021/06/21 07:39:21;;;;;;;6.15;1.35;;;24.20;81.90;;;;;;5073072;28;20377;-73
2021/06/21 07:41:48;;;;;;;7.53;2.00;;;24.00;83.90;;;;;;5077864;28;20048;-74
2021/06/21 07:44:14;;;;;;;7.10;1.83;;;24.90;82.80;;;;;;5077787;28;20048;-74
2021/06/21 07:46:42;;;;;;;8.07;1.80;;;25.60;79.60;;;;;;5078374;28;20040;-74
2021/06/21 07:49:08;;;;;;;5.53;1.73;;;25.40;80.20;;;;;;5078404;28;20044;-74
2021/06/21 07:51:35;;;;;;;5.40;1.58;;;26.30;78.40;;;;;;5078946;28;20035;-74
2021/06/21 07:54:01;;;;;;;6.20;1.40;;;26.50;77.30;;;;;;5078655;28;20484;-75
2021/06/21 07:56:27;;;;;;;4.35;1.35;;;26.30;77.50;;;;;;5078457;28;20048;-75
2021/06/21 07:58:53;;;;;;;5.70;1.40;;;26.00;77.00;;;;;;5079242;28;20397;-74
2021/06/21 08:01:20;;;;;;;7.80;1.27;;;24.80;79.00;;;;;;5083552;28;20392;-74
2021/06/21 08:03:46;;;;;;;5.28;1.50;;;23.90;81.30;;;;;;5078544;28;20041;-74
2021/06/21 08:06:12;;;;;;;5.85;1.55;;;24.00;82.50;;;;;;5078201;28;20032;-74
2021/06/21 08:08:41;;;;;;;6.60;1.30;;;25.40;79.80;;;;;;5078807;28;20036;-74
2021/06/21 08:11:08;;;;;;;4.00;1.30;;;26.50;75.40;;;;;;5091553;28;20043;-74
2021/06/21 08:13:34;;;;;;;4.88;1.40;;;25.80;75.80;;;;;;5078664;28;20422;-74
2021/06/21 08:16:01;;;;;;;3.63;1.40;;;25.30;77.60;;;;;;5077928;28;20024;-75
2021/06/21 08:18:27;;;;;;;3.80;1.00;;;25.80;74.60;;;;;;5077894;28;20390;-73
2021/06/21 08:20:54;;;;;;;6.35;1.10;;;25.20;75.50;;;;;;5077927;28;20032;-72
2021/06/21 08:23:21;;;;;;;4.68;1.17;;;25.00;74.30;;;;;;5077794;28;20047;-73
2021/06/21 08:25:48;;;;;;;3.15;1.23;;;24.60;77.70;;;;;;5078567;28;20462;-74
2021/06/21 08:28:15;;;;;;;4.75;1.00;;;24.80;75.70;;;;;;5092080;28;20029;-73
2021/06/21 08:30:42;;;;;;;3.67;1.00;;;24.40;75.30;;;;;;5084437;28;20099;-74
2021/06/21 08:33:09;;;;;;;3.22;1.08;;;24.40;75.90;;;;;;5091586;28;20466;-73
2021/06/21 08:35:36;;;;;;;3.78;0.80;;;24.00;77.80;;;;;;5078393;28;20064;-73
2021/06/21 08:38:04;;;;;;;4.20;1.15;;;23.70;77.50;;;;;;5077591;28;20033;-74
2021/06/21 08:40:32;;;;;;;3.80;1.50;;;23.60;78.60;;;;;;5078207;28;20040;-74
2021/06/21 08:42:59;;;;;;;3.58;1.13;;;23.50;78.50;;;;;;5078182;28;20388;-74
2021/06/21 08:45:28;;;;;;;4.50;1.30;;;23.40;78.90;;;;;;5090559;28;20043;-73
2021/06/21 08:47:55;;;;;;;1.77;1.20;;;23.30;79.10;;;;;;5078179;28;20056;-73
2021/06/21 08:50:22;;;;;;;2.33;0.98;;;23.30;80.00;;;;;;5077463;28;20518;-73
2021/06/21 08:52:48;;;;;;;2.17;1.02;;;23.30;80.10;;;;;;5074166;28;20047;-73
2021/06/21 08:55:15;;;;;;;4.35;1.10;;;23.60;79.00;;;;;;5074537;28;20378;-74
2021/06/21 08:57:45;;;;;;;8.32;2.00;;;24.20;78.30;;;;;;5074392;28;20045;-74
2021/06/21 09:00:13;;;;;;;10.18;1.42;;;24.80;75.30;;;;;;5076282;28;20032;-74
2021/06/21 09:02:39;;;;;;;3.03;1.30;;;24.50;77.10;;;;;;5092096;28;20044;-73
2021/06/21 09:05:10;;;;;;;3.92;1.15;;;24.40;76.30;;;;;;5073896;28;20469;-74
2021/06/21 09:07:37;;;;;;;3.50;1.08;;;24.50;76.20;;;;;;5075520;28;20382;-74
2021/06/21 09:10:24;;;;;;;4.18;1.23;;;24.40;76.80;;;;;;5074649;28;20020;-75
2021/06/21 09:13:05;;;;;;;1.80;0.90;;;24.90;74.50;;;;;;5073376;28;20044;-72
2021/06/21 09:15:33;;;;;;;5.63;1.55;;;25.90;72.40;;;;;;5074545;28;20029;-74
2021/06/21 09:18:00;;;;;;;3.20;1.23;;;25.10;73.30;;;;;;5074392;28;20028;-74
2021/06/21 09:20:27;;;;;;;2.92;1.33;;;24.70;75.20;;;;;;5072844;28;20040;-74
2021/06/21 09:23:00;;;;;;;3.42;1.00;;;24.80;73.70;;;;;;5074407;28;20593;-73
2021/06/21 09:25:26;;;;;;;3.20;1.30;;;25.10;74.10;;;;;;5080365;28;20051;-74
2021/06/21 09:28:02;;;;;;;2.03;1.17;;;24.20;75.60;;;;;;5077458;28;20045;-73
2021/06/21 09:30:29;;;;;;;4.00;1.10;;;24.10;76.10;;;;;;5078138;28;20032;-74
2021/06/21 09:33:00;;;;;;;4.70;1.40;;;24.10;77.10;;;;;;5088328;28;20039;-73
2021/06/21 09:35:30;;;;;;;5.72;2.00;;;23.90;78.40;;;;;;5074243;28;20465;-74
2021/06/21 09:38:13;;;;;;;2.13;1.27;;;23.60;77.60;;;;;;5076510;28;20035;-73
2021/06/21 09:40:48;;;;;;;2.40;1.10;;;23.70;79.40;;;;;;5080579;28;20032;-73
2021/06/21 09:43:28;;;;;;;3.70;1.20;;;24.00;77.30;;;;;;5077186;28;20036;-73
2021/06/21 09:46:06;;;;;;;6.25;1.63;;;24.00;78.00;;;;;;5076491;28;20062;-74
2021/06/21 09:48:37;;;;;;;3.38;1.60;;;24.30;76.40;;;;;;5092081;28;20028;-74
2021/06/21 09:51:26;;;;;;;6.00;1.58;;;24.40;76.00;;;;;;5073863;28;20028;-74
2021/06/21 09:54:04;;;;;;;3.33;1.38;;;24.30;75.20;;;;;;5073443;28;20039;-74
2021/06/21 09:56:40;;;;;;;3.97;1.45;;;24.00;77.40;;;;;;5073401;28;20063;-74
2021/06/21 09:59:36;;;;;;;4.50;1.30;;;23.70;78.20;;;;;;5080190;28;20052;-74
2021/06/21 10:02:03;;;;;;;3.50;1.25;;;24.20;76.40;;;;;;5076797;28;20047;-73
2021/06/21 10:04:29;;;;;;;5.35;1.50;;;24.20;76.10;;;;;;5072659;28;20037;-74
2021/06/21 10:06:56;;;;;;;7.65;2.20;;;23.80;76.50;;;;;;5073744;28;20051;-74
2021/06/21 10:09:22;;;;;;;2.58;1.30;;;23.80;78.40;;;;;;5073229;28;20641;-74
2021/06/21 10:11:49;;;;;;;4.07;1.58;;;23.70;77.00;;;;;;5073696;28;20035;-74
2021/06/21 10:14:19;;;;;;;3.97;1.33;;;23.50;77.30;;;;;;5077963;28;20031;-74
2021/06/21 10:16:49;;;;;;;4.80;1.10;;;23.60;76.90;;;;;;5077707;28;20035;-74
2021/06/21 10:19:17;;;;;;;2.22;1.10;;;23.90;75.90;;;;;;5087697;28;20033;-74
2021/06/21 10:21:47;;;;;;;6.85;2.58;;;24.20;74.90;;;;;;5072270;28;20040;-75
2021/06/21 10:24:14;;;;;;;5.18;1.52;;;24.50;74.50;;;;;;5073057;28;20029;-74
2021/06/21 10:26:50;;;;;;;3.90;1.77;;;24.80;74.80;;;;;;5087670;28;20051;-74
2021/06/21 10:29:17;;;;;;;4.03;1.20;;;25.50;72.70;;;;;;5073234;28;20036;-73
2021/06/21 10:31:44;;;;;;;5.30;1.25;;;25.70;73.30;;;;;;5084214;28;20024;-73
2021/06/21 10:34:12;;;;;;;4.75;1.73;;;25.40;72.10;;;;;;5080396;28;20386;-74
2021/06/21 10:36:43;;;;;;;2.78;1.13;;;25.10;73.30;;;;;;5072671;28;20063;-73
2021/06/21 10:39:19;;;;;;;2.85;1.15;;;25.10;73.00;;;;;;5072246;28;20031;-74
2021/06/21 10:42:04;;;;;;;2.28;1.27;;;24.90;74.10;;;;;;5072440;28;20045;-74
2021/06/21 10:44:33;;;;;;;3.00;1.65;;;24.80;70.70;;;;;;5072805;28;20470;-74
2021/06/21 10:47:49;;;;;;;2.58;1.05;;;24.80;71.40;;;;;;5074366;28;20051;-74
2021/06/21 10:50:19;;;;;;;4.65;1.67;;;24.60;73.00;;;;;;5061035;28;20052;-73
2021/06/21 10:52:48;;;;;;;;;;;24.60;74.60;;;;;;5073192;28;20020;-72
2021/06/21 10:58:08;;;;;;;4.95;1.25;;;24.40;72.50;;;;;;5072625;28;20059;-74
2021/06/21 11:00:41;;;;;;;4.80;1.02;;;24.30;72.20;;;;;;5080869;28;20369;-74
2021/06/21 11:03:26;;;;;;;2.55;1.00;;;24.10;73.40;;;;;;5088280;28;20055;-74
2021/06/21 11:06:04;;;;;;;3.38;1.00;;;24.20;72.50;;;;;;5075102;28;20060;-74
2021/06/21 11:08:39;;;;;;;5.95;1.33;;;24.60;73.20;;;;;;5075195;28;20040;-74
2021/06/21 11:11:38;;;;;;;3.97;1.60;;;24.90;70.80;;;;;;5081206;28;20031;-73
2021/06/21 11:14:26;;;;;;;4.25;1.15;;;25.30;68.40;;;;;;5078969;28;20032;-73
2021/06/21 11:17:26;;;;;;;2.25;1.08;;;25.30;67.40;;;;;;5074990;28;20028;-80
2021/06/21 11:19:52;;;;;;;6.10;1.70;;;25.20;70.00;;;;;;5050184;28;20036;-74
2021/06/21 11:22:42;;;;;;;4.93;1.30;;;25.40;69.40;;;;;;5072713;28;20492;-74
2021/06/21 11:25:23;;;;;;;2.88;1.17;;;24.70;69.30;;;;;;5072197;28;20063;-74
2021/06/21 11:27:51;;;;;;;3.72;1.20;;;25.10;70.30;;;;;;5072777;28;20382;-74
2021/06/21 11:30:28;;;;;;;2.63;1.10;;;25.40;68.80;;;;;;5074273;28;21459;-73
2021/06/21 11:33:09;;;;;;;2.90;1.23;;;24.70;69.70;;;;;;5079804;28;20734;-73
2021/06/21 11:35:54;;;;;;;3.55;0.90;;;24.60;71.60;;;;;;5072306;28;20377;-73
2021/06/21 11:38:29;;;;;;;3.65;1.10;;;24.80;69.90;;;;;;5071443;28;20059;-72
2021/06/21 11:41:20;;;;;;;3.72;1.08;;;25.00;71.70;;;;;;5072342;28;20047;-73
2021/06/21 11:43:52;;;;;;;3.75;1.05;;;24.80;71.20;;;;;;5072612;28;20025;-73
2021/06/21 11:46:40;;;;;;;4.15;1.00;;;24.90;69.10;;;;;;5072001;28;20032;-74
2021/06/21 11:49:15;;;;;;;2.50;1.17;;;25.00;68.10;;;;;;5071810;28;20024;-73
2021/06/21 11:52:03;;;;;;;3.42;1.10;;;24.70;68.60;;;;;;5071827;28;20473;-73
2021/06/21 11:54:37;;;;;;;3.80;1.25;;;24.90;69.60;;;;;;5071444;28;20036;-73
2021/06/21 11:57:05;;;;;;;6.25;1.67;;;25.00;68.90;;;;;;5073842;28;20033;-73
2021/06/21 11:59:35;;;;;;;2.38;1.30;;;24.80;69.10;;;;;;5089026;28;20206;-73
2021/06/21 12:02:07;;;;;;;3.55;1.58;;;24.70;70.40;;;;;;5085748;28;20036;-72
2021/06/21 12:04:34;;;;;;;4.25;1.15;;;24.50;69.90;;;;;;5090290;28;20040;-72
2021/06/21 12:07:00;;;;;;;2.80;1.55;;;24.40;69.30;;;;;;5076513;28;20479;-72
2021/06/21 12:09:26;;;;;;;3.53;1.50;;;24.50;70.60;;;;;;5087066;28;20457;-73
2021/06/21 12:11:53;;;;;;;4.63;1.30;;;24.50;69.60;;;;;;5087447;28;20051;-73
2021/06/21 12:14:25;;;;;;;5.18;1.85;;;24.60;70.30;;;;;;5088320;28;20473;-74
2021/06/21 12:17:02;;;;;;;4.88;1.70;;;24.60;71.00;;;;;;5076540;28;20393;-74
2021/06/21 12:19:29;;;;;;;5.80;1.85;;;24.60;70.30;;;;;;5083498;28;20516;-73
2021/06/21 12:21:55;;;;;;;2.15;1.10;;;24.80;68.90;;;;;;5088757;28;20393;-73
2021/06/21 12:24:30;;;;;;;5.78;1.27;;;25.40;68.80;;;;;;5082243;28;20468;-73
2021/06/21 12:27:07;;;;;;;3.60;1.40;;;25.70;69.00;;;;;;5081454;28;20032;-73
2021/06/21 12:29:36;;;;;;;3.80;1.08;;;25.90;67.90;;;;;;5094107;28;20028;-73
2021/06/21 12:32:12;;;;;;;5.30;1.13;;;25.70;64.60;;;;;;5087940;28;20043;-71
2021/06/21 12:34:58;;;;;;;3.22;1.50;;;25.80;66.70;;;;;;5074302;28;20051;-72
2021/06/21 12:37:27;;;;;;;4.28;1.23;;;25.60;68.60;;;;;;5074296;28;20033;-73
2021/06/21 12:40:12;;;;;;;4.15;1.60;;;25.40;69.00;;;;;;5075037;28;20032;-72
2021/06/21 12:42:38;;;;;;;3.15;1.20;;;25.40;68.50;;;;;;5075280;28;20035;-72
2021/06/21 12:45:14;;;;;;;2.83;1.83;;;25.40;66.70;;;;;;5074966;28;20041;-71
2021/06/21 12:47:46;;;;;;;4.65;1.88;;;25.70;66.40;;;;;;5074432;28;20067;-72
2021/06/21 12:50:14;;;;;;;2.92;1.02;;;25.90;64.50;;;;;;5073366;28;20041;-72
2021/06/21 12:52:46;;;;;;;4.70;1.00;;;25.80;65.20;;;;;;5075522;28;20044;-72
2021/06/21 12:55:15;;;;;;;3.35;0.98;;;25.80;64.00;;;;;;5074212;28;20036;-71
2021/06/21 12:58:01;;;;;;;2.47;0.83;;;26.10;66.30;;;;;;5083534;28;20079;-72
2021/06/21 13:00:46;;;;;;;2.83;0.88;;;26.70;64.40;;;;;;5076320;28;20528;-73
2021/06/21 13:03:22;;;;;;;3.35;1.40;;;27.20;66.10;;;;;;5081964;28;20044;-74